Kent, Oregon
Current Conditions -  °F | °C
As of 10:09 PM on Wednesday 28 Jan 2015 (Local Time) from KDLS Reporting Station
Overcast Overcast  
Wind Chill: 35°   Ceiling: 1500
Heat Index: 41°   Visibility: 10mi
Dew Point: 37°   Wind: 10mph
Humidity: 86%   Direction: 80°E
Pressure: 30.47"   Gusts: NA
Location:  45.2°N, 120.7°W
Report Text: KDLS 290609Z AUTO 08009KT 10SM OVC015 05/03 A3047 RMK AO2 T00500028
Loading
Personal Weather Stations






























Interactive Weather Map New forecast layout! Learn more

10-Day Weather Forecast

Advertisements
Track Severe Weather on mobile